Time;durP1;ratioP1;P1;durP2;ratioP2;P2;SDS_P1;SDS_P2;PMS_P1;PMS_P2;Temp;Humidity;BMP_temperature;BMP_pressure;BME280_temperature;BME280_humidity;BME280_pressure;Samples;Min_cycle;Max_cycle;Signal;HPM_P1;HPM_P2
2023/01/27 00:00:05;;;;;;;43.45;15.57;;;3.50;99.90;;;;;;5074673;28;20043;-64
2023/01/27 00:02:30;;;;;;;39.08;15.93;;;3.50;99.90;;;;;;5075941;28;20058;-64
2023/01/27 00:04:56;;;;;;;38.15;17.33;;;3.50;99.90;;;;;;5075748;28;20016;-64
2023/01/27 00:07:22;;;;;;;51.65;21.38;;;3.40;99.90;;;;;;5075948;28;20047;-64
2023/01/27 00:09:47;;;;;;;49.72;21.42;;;3.40;99.90;;;;;;5074739;28;20058;-64
2023/01/27 00:15:05;;;;;;;46.00;18.65;;;3.10;99.90;;;;;;5075421;28;20024;-64
2023/01/27 00:17:31;;;;;;;50.30;19.67;;;3.10;99.90;;;;;;5075648;28;20098;-64
2023/01/27 00:19:56;;;;;;;48.22;19.65;;;3.10;99.90;;;;;;5075432;28;20466;-64
2023/01/27 00:25:08;;;;;;;50.72;20.30;;;3.10;99.90;;;;;;5074206;28;20017;-64
2023/01/27 00:27:33;;;;;;;50.65;20.52;;;3.10;99.90;;;;;;5075307;28;20058;-64
2023/01/27 00:29:59;;;;;;;47.53;19.90;;;3.10;99.90;;;;;;5074119;28;20121;-64
2023/01/27 00:35:11;;;;;;;59.50;21.58;;;3.10;99.90;;;;;;5075046;28;20024;-64
2023/01/27 00:37:36;;;;;;;42.80;19.35;;;3.00;99.90;;;;;;5075457;28;20032;-64
2023/01/27 00:40:02;;;;;;;55.10;20.65;;;3.00;99.90;;;;;;5074809;28;20036;-63
2023/01/27 00:42:27;;;;;;;49.92;20.70;;;2.90;99.90;;;;;;5073793;28;20021;-63
2023/01/27 00:47:38;;;;;;;51.45;21.02;;;2.90;99.90;;;;;;5074746;28;20021;-63
2023/01/27 00:50:04;;;;;;;61.03;22.73;;;2.90;99.90;;;;;;5075149;28;20038;-64
2023/01/27 00:52:30;;;;;;;60.20;23.83;;;2.90;99.90;;;;;;5074837;28;20032;-64
2023/01/27 00:54:55;;;;;;;63.35;25.38;;;2.80;99.90;;;;;;5074732;28;20078;-64
2023/01/27 00:57:21;;;;;;;62.38;24.60;;;2.80;99.90;;;;;;5074766;28;20035;-64
2023/01/27 00:59:46;;;;;;;57.15;24.30;;;2.80;99.90;;;;;;5073460;28;20081;-64
2023/01/27 01:02:12;;;;;;;61.20;25.00;;;2.70;99.90;;;;;;5074737;28;20040;-64
2023/01/27 01:04:37;;;;;;;66.75;24.65;;;2.70;99.90;;;;;;5074687;28;20021;-64
2023/01/27 01:07:03;;;;;;;62.00;22.83;;;2.60;99.90;;;;;;5074824;28;20493;-64
2023/01/27 01:09:29;;;;;;;60.80;24.60;;;2.70;99.90;;;;;;5073430;28;20047;-64
2023/01/27 01:11:55;;;;;;;51.08;21.48;;;2.60;99.90;;;;;;5074772;28;20470;-64
2023/01/27 01:14:20;;;;;;;52.38;20.08;;;2.60;99.90;;;;;;5074729;28;20039;-64
2023/01/27 01:16:46;;;;;;;54.72;21.42;;;2.70;99.90;;;;;;5074659;28;20028;-64
2023/01/27 01:19:11;;;;;;;53.10;22.17;;;2.70;99.90;;;;;;5074499;28;20030;-64
2023/01/27 01:21:37;;;;;;;50.95;19.48;;;2.70;99.90;;;;;;5073053;28;20021;-64
2023/01/27 01:24:02;;;;;;;52.90;20.80;;;2.70;99.90;;;;;;5072319;28;20107;-64
2023/01/27 01:26:28;;;;;;;54.53;20.17;;;2.70;99.90;;;;;;5074204;28;20029;-64
2023/01/27 01:28:53;;;;;;;54.38;20.17;;;2.80;99.90;;;;;;5074328;28;20532;-64
2023/01/27 01:31:20;;;;;;;50.55;19.52;;;2.80;99.90;;;;;;5074110;28;20470;-64
2023/01/27 01:33:48;;;;;;;51.00;20.20;;;2.80;99.90;;;;;;5072781;28;20546;-64
2023/01/27 01:36:17;;;;;;;49.97;19.08;;;2.80;99.90;;;;;;5072869;28;20075;-64
2023/01/27 01:38:43;;;;;;;44.47;19.60;;;2.80;99.90;;;;;;5073774;28;20558;-64
2023/01/27 01:41:12;;;;;;;48.58;19.25;;;2.80;99.90;;;;;;5074103;28;20025;-64
2023/01/27 01:43:38;;;;;;;53.92;20.10;;;2.70;99.90;;;;;;5072979;28;20111;-64
2023/01/27 01:46:05;;;;;;;48.05;19.50;;;2.70;99.90;;;;;;5073789;28;20113;-64
2023/01/27 01:48:37;;;;;;;56.20;20.40;;;2.70;99.90;;;;;;5073766;28;20017;-64
2023/01/27 01:51:26;;;;;;;48.67;20.65;;;2.70;99.90;;;;;;5072488;28;20095;-64
2023/01/27 01:54:15;;;;;;;45.85;20.23;;;2.70;99.90;;;;;;5073612;28;20032;-64
2023/01/27 01:56:46;;;;;;;51.45;20.27;;;2.70;99.90;;;;;;5073607;28;20028;-64
2023/01/27 01:59:18;;;;;;;51.25;20.33;;;2.70;99.90;;;;;;5073584;28;20074;-64
2023/01/27 02:01:44;;;;;;;51.65;20.83;;;2.70;99.90;;;;;;5073540;28;20087;-64
2023/01/27 02:04:17;;;;;;;58.08;21.50;;;2.70;99.90;;;;;;5073904;28;20054;-64
2023/01/27 02:06:51;;;;;;;37.53;15.90;;;2.70;99.90;;;;;;5072382;28;20028;-64
2023/01/27 02:09:19;;;;;;;52.58;21.13;;;2.70;99.90;;;;;;5073529;28;20406;-64
2023/01/27 02:11:45;;;;;;;51.10;19.73;;;2.70;99.90;;;;;;5073460;28;20024;-64
2023/01/27 02:14:13;;;;;;;53.10;18.95;;;2.80;99.90;;;;;;5073441;28;20040;-64
2023/01/27 02:16:39;;;;;;;50.55;20.30;;;2.80;99.90;;;;;;5073485;28;20031;-64
2023/01/27 02:19:07;;;;;;;54.85;19.75;;;2.80;99.90;;;;;;5073323;28;20036;-64
2023/01/27 02:21:34;;;;;;;52.00;19.83;;;2.80;99.90;;;;;;5073546;28;20028;-64
2023/01/27 02:24:09;;;;;;;48.50;20.33;;;2.80;99.90;;;;;;5073266;28;20016;-64
2023/01/27 02:26:42;;;;;;;45.92;18.67;;;2.80;99.90;;;;;;5073381;28;20386;-64
2023/01/27 02:29:11;;;;;;;47.92;17.95;;;2.80;99.90;;;;;;5073300;28;20052;-64
2023/01/27 02:31:37;;;;;;;42.63;17.98;;;2.80;99.90;;;;;;5073295;28;20505;-64
2023/01/27 02:34:07;;;;;;;45.42;19.00;;;2.90;99.90;;;;;;5073215;28;20028;-64
2023/01/27 02:36:38;;;;;;;45.60;17.58;;;2.80;99.90;;;;;;5073298;28;20036;-64
2023/01/27 02:39:06;;;;;;;47.55;16.90;;;2.90;99.90;;;;;;5072888;28;20059;-64
2023/01/27 02:41:51;;;;;;;42.22;17.10;;;2.90;99.90;;;;;;5071849;28;20025;-64
2023/01/27 02:44:17;;;;;;;40.40;16.55;;;2.90;99.90;;;;;;5072064;28;20017;-64
2023/01/27 02:46:42;;;;;;;43.97;18.25;;;2.90;99.90;;;;;;5073045;28;20024;-64
2023/01/27 02:49:08;;;;;;;39.47;16.92;;;2.90;99.90;;;;;;5073139;28;20025;-64
2023/01/27 02:51:33;;;;;;;46.47;16.63;;;2.90;99.90;;;;;;5073052;28;20028;-64
2023/01/27 02:53:59;;;;;;;42.67;17.33;;;2.90;99.90;;;;;;5073296;28;20056;-64
2023/01/27 02:56:25;;;;;;;45.38;18.05;;;2.90;99.90;;;;;;5072948;28;20029;-64
2023/01/27 02:58:50;;;;;;;43.10;16.67;;;2.90;99.90;;;;;;5072885;28;20020;-64
2023/01/27 03:01:17;;;;;;;44.67;17.98;;;2.80;99.90;;;;;;5071766;28;20024;-64
2023/01/27 03:03:45;;;;;;;46.40;17.95;;;2.80;99.90;;;;;;5072976;28;20024;-64
2023/01/27 03:06:12;;;;;;;45.08;17.23;;;2.80;99.90;;;;;;5072888;28;20393;-64
2023/01/27 03:08:37;;;;;;;41.72;16.52;;;2.80;99.90;;;;;;5071615;28;20029;-64
2023/01/27 03:11:03;;;;;;;39.83;16.48;;;2.80;99.90;;;;;;5072866;28;20036;-64
2023/01/27 03:13:28;;;;;;;41.03;16.73;;;2.80;99.90;;;;;;5071911;28;20047;-64
2023/01/27 03:18:48;;;;;;;43.70;16.83;;;2.80;99.90;;;;;;5072590;28;20532;-64
2023/01/27 03:21:15;;;;;;;41.65;17.63;;;2.80;99.90;;;;;;5072742;28;20481;-64
2023/01/27 03:23:41;;;;;;;45.47;17.25;;;2.80;99.90;;;;;;5071561;28;20024;-64
2023/01/27 03:26:08;;;;;;;45.08;17.15;;;2.80;99.90;;;;;;5072953;28;20157;-65
2023/01/27 03:28:34;;;;;;;41.28;16.77;;;2.80;99.90;;;;;;5071733;28;20466;-64
2023/01/27 03:31:01;;;;;;;44.17;17.33;;;2.80;99.90;;;;;;5071428;28;20027;-64
2023/01/27 03:33:27;;;;;;;43.63;16.98;;;2.90;99.90;;;;;;5072602;28;20017;-64
2023/01/27 03:46:55;;;;;;;42.75;17.52;;;2.90;99.90;;;;;;5073271;28;20029;-64
2023/01/27 03:49:21;;;;;;;42.30;17.67;;;2.90;99.90;;;;;;5076035;28;20028;-64
2023/01/27 03:51:46;;;;;;;40.58;17.58;;;2.90;99.90;;;;;;5076051;28;20021;-64
2023/01/27 03:54:12;;;;;;;50.03;19.90;;;2.90;99.90;;;;;;5075936;28;20497;-64
2023/01/27 03:56:47;;;;;;;53.72;19.98;;;2.90;99.90;;;;;;5076053;28;20082;-64
2023/01/27 03:59:13;;;;;;;46.40;18.00;;;2.90;99.90;;;;;;5076004;28;20386;-64
2023/01/27 04:01:38;;;;;;;47.13;19.05;;;2.90;99.90;;;;;;5075998;28;20020;-64
2023/01/27 04:06:50;;;;;;;47.13;18.95;;;2.90;99.90;;;;;;5075605;28;20017;-64
2023/01/27 04:09:23;;;;;;;42.20;16.35;;;3.00;99.90;;;;;;5076007;28;20029;-64
2023/01/27 04:11:57;;;;;;;38.85;16.38;;;3.00;99.90;;;;;;5075747;28;20051;-64
2023/01/27 04:14:30;;;;;;;39.22;17.85;;;3.00;99.90;;;;;;5075858;28;20035;-64
2023/01/27 04:16:58;;;;;;;;;;;3.10;99.90;;;;;;5076282;28;20029;-64
2023/01/27 04:19:24;;;;;;;40.22;17.13;;;3.10;99.90;;;;;;5075715;28;19908;-64
2023/01/27 04:21:50;;;;;;;35.95;16.42;;;3.10;99.90;;;;;;5075501;28;20043;-64
2023/01/27 04:24:21;;;;;;;41.88;17.17;;;3.10;99.90;;;;;;5075513;28;20020;-64
2023/01/27 04:26:48;;;;;;;43.33;16.77;;;3.10;99.90;;;;;;5075677;28;20028;-64
2023/01/27 04:29:14;;;;;;;38.10;16.55;;;3.10;99.90;;;;;;5075375;28;20501;-68
2023/01/27 04:31:40;;;;;;;37.63;15.82;;;3.20;99.90;;;;;;5075370;28;20059;-64
2023/01/27 04:34:06;;;;;;;36.90;14.93;;;3.20;99.90;;;;;;5075562;28;20077;-64
2023/01/27 04:36:32;;;;;;;41.38;16.73;;;3.20;99.90;;;;;;5075191;28;20489;-64
2023/01/27 04:38:57;;;;;;;35.15;16.02;;;3.20;99.90;;;;;;5074888;28;20044;-64
2023/01/27 04:41:29;;;;;;;31.85;15.88;;;3.20;99.90;;;;;;5075031;28;20016;-64
2023/01/27 04:43:54;;;;;;;35.10;15.55;;;3.20;99.90;;;;;;5075281;28;20044;-64
2023/01/27 04:46:20;;;;;;;36.28;15.88;;;3.20;99.90;;;;;;5073970;28;20552;-64
2023/01/27 04:48:45;;;;;;;33.03;15.52;;;3.20;99.90;;;;;;5075011;28;20025;-64
2023/01/27 04:51:11;;;;;;;31.40;14.00;;;3.30;99.90;;;;;;5075334;28;20064;-64
2023/01/27 04:53:36;;;;;;;32.53;15.52;;;3.30;99.90;;;;;;5073795;28;20482;-64
2023/01/27 04:56:06;;;;;;;34.15;14.40;;;3.20;99.90;;;;;;5074794;28;20108;-64
2023/01/27 04:58:31;;;;;;;30.33;13.57;;;3.30;99.90;;;;;;5075080;28;20055;-64
2023/01/27 05:00:57;;;;;;;26.75;13.88;;;3.30;99.90;;;;;;5074686;28;20024;-64
2023/01/27 05:03:23;;;;;;;26.00;13.98;;;3.30;99.90;;;;;;5074964;28;20405;-64
2023/01/27 05:05:48;;;;;;;26.15;12.30;;;3.30;99.90;;;;;;5075048;28;20438;-64
2023/01/27 05:08:14;;;;;;;27.23;12.50;;;3.40;99.90;;;;;;5074656;28;20095;-64
2023/01/27 05:10:43;;;;;;;24.50;12.10;;;3.40;99.90;;;;;;5074747;28;20478;-64
2023/01/27 05:13:09;;;;;;;26.85;13.57;;;3.40;99.90;;;;;;5073250;28;20052;-64
2023/01/27 05:15:35;;;;;;;27.33;12.45;;;3.40;99.90;;;;;;5074548;28;20067;-64
2023/01/27 05:18:00;;;;;;;27.90;12.70;;;3.40;99.90;;;;;;5074388;28;20028;-64
2023/01/27 05:20:26;;;;;;;25.23;12.95;;;3.40;99.90;;;;;;5074311;28;20032;-64
2023/01/27 05:23:33;;;;;;;26.35;10.82;;;3.40;99.90;;;;;;5074301;28;20482;-64
2023/01/27 05:25:39;;;;;;;24.23;11.70;;;3.50;99.90;;;;;;5074124;28;20507;-64
2023/01/27 05:28:05;;;;;;;22.98;12.45;;;3.40;99.90;;;;;;5074289;28;20151;-64
2023/01/27 05:30:30;;;;;;;25.35;12.88;;;3.40;99.90;;;;;;5074108;28;20497;-64
2023/01/27 05:32:56;;;;;;;30.05;12.40;;;3.50;99.90;;;;;;5074062;28;20064;-64
2023/01/27 05:35:21;;;;;;;23.27;11.63;;;3.50;99.90;;;;;;5074061;28;20101;-64
2023/01/27 05:37:47;;;;;;;21.45;12.43;;;3.50;99.90;;;;;;5073998;28;20155;-64
2023/01/27 05:40:12;;;;;;;26.40;14.00;;;3.50;99.90;;;;;;5073757;28;20052;-64
2023/01/27 05:42:38;;;;;;;27.98;14.02;;;3.50;99.90;;;;;;5073935;28;20021;-64
2023/01/27 05:45:04;;;;;;;24.50;11.90;;;3.50;99.90;;;;;;5073909;28;20035;-64
2023/01/27 05:47:30;;;;;;;24.45;13.18;;;3.50;99.90;;;;;;5073756;28;20138;-64
2023/01/27 05:49:55;;;;;;;23.95;12.57;;;3.50;99.90;;;;;;5073758;28;20029;-64
2023/01/27 05:52:21;;;;;;;28.17;13.45;;;3.50;99.90;;;;;;5073675;28;20028;-64
2023/01/27 05:54:46;;;;;;;27.35;13.50;;;3.50;99.90;;;;;;5073907;28;20020;-64
2023/01/27 05:57:12;;;;;;;28.10;13.85;;;3.50;99.90;;;;;;5073591;28;20558;-64
2023/01/27 05:59:37;;;;;;;24.75;12.65;;;3.50;99.90;;;;;;5073792;28;20059;-64
2023/01/27 06:02:03;;;;;;;24.17;12.40;;;3.40;99.90;;;;;;5073509;28;20066;-64
2023/01/27 06:04:28;;;;;;;24.20;12.68;;;3.50;99.90;;;;;;5073478;28;20024;-64
2023/01/27 06:06:54;;;;;;;24.08;12.43;;;3.50;99.90;;;;;;5073488;28;20024;-64
2023/01/27 06:09:19;;;;;;;21.02;11.52;;;3.50;99.90;;;;;;5073061;28;20060;-64
2023/01/27 06:11:46;;;;;;;23.73;11.02;;;3.50;99.90;;;;;;5073355;28;20100;-64
2023/01/27 06:14:11;;;;;;;20.92;11.30;;;3.50;99.90;;;;;;5072445;28;20036;-64
2023/01/27 06:16:37;;;;;;;21.60;11.40;;;3.50;99.90;;;;;;5073454;28;20051;-64
2023/01/27 06:19:02;;;;;;;21.65;11.70;;;3.60;99.90;;;;;;5072015;28;20097;-64
2023/01/27 06:21:28;;;;;;;22.85;12.48;;;3.60;99.90;;;;;;5072050;28;20432;-64
2023/01/27 06:23:54;;;;;;;23.98;11.40;;;3.50;99.90;;;;;;5073282;28;20498;-64
2023/01/27 06:26:20;;;;;;;21.58;11.23;;;3.50;99.90;;;;;;5073511;28;20501;-64
2023/01/27 06:28:45;;;;;;;20.77;11.23;;;3.60;99.90;;;;;;5073535;28;20025;-64
2023/01/27 06:31:15;;;;;;;24.90;11.77;;;3.50;99.90;;;;;;5073275;28;20047;-64
2023/01/27 06:33:41;;;;;;;19.45;10.30;;;3.60;99.90;;;;;;5073205;28;20382;-64
2023/01/27 06:36:09;;;;;;;21.42;10.85;;;3.60;99.90;;;;;;5073147;28;20034;-64
2023/01/27 06:38:35;;;;;;;18.30;10.40;;;3.60;99.90;;;;;;5071783;28;20034;-64
2023/01/27 06:41:01;;;;;;;20.65;10.38;;;3.60;99.90;;;;;;5055160;28;20119;-64
2023/01/27 06:43:27;;;;;;;18.27;10.35;;;3.60;99.90;;;;;;5073001;28;20437;-64
2023/01/27 06:45:52;;;;;;;16.95;10.23;;;3.60;99.90;;;;;;5073038;28;20032;-64
2023/01/27 06:48:18;;;;;;;18.63;10.13;;;3.70;99.90;;;;;;5073071;28;20501;-64
2023/01/27 06:50:44;;;;;;;17.83;9.57;;;3.60;99.90;;;;;;5055040;28;20025;-64
2023/01/27 06:53:10;;;;;;;18.70;10.50;;;3.70;99.90;;;;;;5071816;28;20024;-66
2023/01/27 06:55:40;;;;;;;18.58;10.43;;;3.70;99.90;;;;;;5071663;28;20028;-64
2023/01/27 06:58:07;;;;;;;18.77;9.80;;;3.70;99.90;;;;;;5071615;28;20020;-64
2023/01/27 07:00:32;;;;;;;16.50;10.43;;;3.70;99.90;;;;;;5072828;28;20032;-64
2023/01/27 07:02:58;;;;;;;18.48;10.18;;;3.70;99.90;;;;;;5072997;28;20471;-64
2023/01/27 07:05:24;;;;;;;16.17;9.27;;;3.70;99.90;;;;;;5071896;28;20520;-64
2023/01/27 07:07:49;;;;;;;17.30;9.60;;;3.80;99.90;;;;;;5072826;28;20070;-64
2023/01/27 07:10:15;;;;;;;16.52;9.70;;;3.70;99.90;;;;;;5071540;28;20359;-64
2023/01/27 07:12:41;;;;;;;17.30;9.45;;;3.80;99.90;;;;;;5072624;28;20112;-64
2023/01/27 07:15:08;;;;;;;16.75;10.07;;;3.70;99.90;;;;;;5065287;28;20486;-65
2023/01/27 07:17:34;;;;;;;15.70;9.90;;;3.80;99.90;;;;;;5062875;28;20531;-64
2023/01/27 07:20:00;;;;;;;18.88;9.43;;;3.80;99.90;;;;;;5069511;28;20029;-64
2023/01/27 07:22:25;;;;;;;17.73;9.63;;;3.70;99.90;;;;;;5074200;28;20021;-64
2023/01/27 07:24:51;;;;;;;18.65;10.57;;;3.70;99.90;;;;;;5076338;28;20375;-64
2023/01/27 07:27:17;;;;;;;18.33;10.18;;;3.70;99.90;;;;;;5074881;28;20028;-64
2023/01/27 07:29:43;;;;;;;17.30;9.65;;;3.80;99.90;;;;;;5076075;28;20021;-64
2023/01/27 07:32:08;;;;;;;16.83;9.52;;;3.80;99.90;;;;;;5074971;28;20036;-64
2023/01/27 07:34:34;;;;;;;15.93;8.80;;;3.80;99.90;;;;;;5075077;28;20478;-64
2023/01/27 07:37:00;;;;;;;14.75;9.30;;;3.80;99.90;;;;;;5074218;28;20033;-64
2023/01/27 07:39:26;;;;;;;16.55;9.15;;;3.80;99.90;;;;;;5075261;28;20048;-63
2023/01/27 07:41:52;;;;;;;18.15;9.48;;;3.80;99.90;;;;;;5074799;28;20390;-64
2023/01/27 07:44:17;;;;;;;15.45;7.95;;;3.80;99.90;;;;;;5075123;28;20497;-63
2023/01/27 07:46:43;;;;;;;16.90;9.63;;;3.90;99.90;;;;;;5076083;28;20021;-63
2023/01/27 07:49:11;;;;;;;16.33;8.80;;;3.90;99.90;;;;;;5076133;28;20053;-63
2023/01/27 07:51:36;;;;;;;17.92;10.60;;;3.90;99.90;;;;;;5055322;28;20055;-63
2023/01/27 07:54:03;;;;;;;16.13;9.32;;;3.90;99.90;;;;;;5074835;28;20432;-63
2023/01/27 07:56:29;;;;;;;15.75;9.18;;;3.90;99.90;;;;;;5075673;28;20047;-63
2023/01/27 07:58:54;;;;;;;15.55;8.90;;;3.90;99.90;;;;;;5075215;28;20025;-62
2023/01/27 08:01:20;;;;;;;21.35;10.23;;;3.90;99.90;;;;;;5074634;28;20028;-63
2023/01/27 08:03:46;;;;;;;16.05;8.30;;;3.90;99.90;;;;;;5074051;28;20032;-63
2023/01/27 08:06:11;;;;;;;14.73;8.48;;;3.90;99.90;;;;;;5072369;28;20103;-63
2023/01/27 08:08:38;;;;;;;16.15;9.02;;;4.00;99.90;;;;;;5075639;28;20111;-63
2023/01/27 08:11:07;;;;;;;15.10;8.85;;;4.00;99.90;;;;;;5075501;28;20029;-63
2023/01/27 08:13:34;;;;;;;16.85;9.52;;;4.00;99.90;;;;;;5073119;28;20056;-63
2023/01/27 08:16:04;;;;;;;16.88;8.35;;;4.00;99.90;;;;;;5075209;28;20064;-63
2023/01/27 08:18:32;;;;;;;15.43;9.30;;;4.10;99.90;;;;;;5075195;28;20021;-62
2023/01/27 08:21:00;;;;;;;14.00;8.88;;;4.10;99.90;;;;;;5074040;28;20020;-62
2023/01/27 08:23:25;;;;;;;16.58;9.10;;;4.10;99.90;;;;;;5074631;28;20044;-63
2023/01/27 08:25:53;;;;;;;14.48;8.30;;;4.10;99.90;;;;;;5075501;28;20059;-63
2023/01/27 08:28:19;;;;;;;14.02;8.50;;;4.20;99.90;;;;;;5074461;28;20045;-63
2023/01/27 08:30:46;;;;;;;13.07;8.38;;;4.10;99.90;;;;;;5075182;28;20032;-64
2023/01/27 08:33:12;;;;;;;15.88;9.02;;;4.20;99.90;;;;;;5074224;28;20033;-64
2023/01/27 08:35:41;;;;;;;15.75;8.50;;;4.20;99.90;;;;;;5074638;28;20504;-63
2023/01/27 08:38:07;;;;;;;14.35;8.57;;;4.30;99.90;;;;;;5075055;28;20040;-63
2023/01/27 08:40:33;;;;;;;15.15;7.07;;;4.30;99.90;;;;;;5074052;28;20044;-63
2023/01/27 08:43:00;;;;;;;15.57;8.60;;;4.30;99.90;;;;;;5073090;28;20098;-63
2023/01/27 08:45:26;;;;;;;16.33;8.73;;;4.30;99.90;;;;;;5061176;28;20029;-63
2023/01/27 08:47:52;;;;;;;13.82;8.20;;;4.30;99.90;;;;;;5054767;28;20530;-63
2023/01/27 08:50:17;;;;;;;14.98;8.80;;;4.20;99.90;;;;;;5066584;28;20115;-63
2023/01/27 08:52:43;;;;;;;18.10;8.50;;;4.30;99.90;;;;;;5073948;28;20473;-63
2023/01/27 08:55:09;;;;;;;16.52;8.55;;;4.20;99.90;;;;;;5067749;28;20052;-63
2023/01/27 08:57:35;;;;;;;15.20;8.48;;;4.30;99.90;;;;;;5073583;28;20032;-63
2023/01/27 09:00:00;;;;;;;14.63;8.65;;;4.30;99.90;;;;;;5071903;28;20424;-65
2023/01/27 09:02:26;;;;;;;17.92;9.00;;;4.30;99.90;;;;;;5074109;28;20531;-63
2023/01/27 09:04:52;;;;;;;15.80;9.35;;;4.30;99.90;;;;;;5073837;28;20029;-63
2023/01/27 09:07:17;;;;;;;15.75;8.68;;;4.30;99.90;;;;;;5073992;28;20497;-63
2023/01/27 09:09:47;;;;;;;15.85;10.38;;;4.30;99.90;;;;;;5064204;28;20052;-63
2023/01/27 09:12:12;;;;;;;17.00;9.63;;;4.30;99.90;;;;;;5054300;28;20025;-64
2023/01/27 09:14:39;;;;;;;19.27;9.95;;;4.30;99.90;;;;;;5054352;28;20182;-63
2023/01/27 09:17:04;;;;;;;18.95;10.23;;;4.30;99.90;;;;;;5054174;28;20036;-63
2023/01/27 09:19:30;;;;;;;17.90;9.18;;;4.30;99.90;;;;;;5069436;28;20032;-63
2023/01/27 09:21:56;;;;;;;17.98;11.05;;;4.30;99.90;;;;;;5074126;28;20474;-63
2023/01/27 09:24:21;;;;;;;24.13;12.02;;;4.30;99.90;;;;;;5073874;28;20039;-64
2023/01/27 09:26:47;;;;;;;21.92;11.18;;;4.30;99.90;;;;;;5073685;28;20107;-63
2023/01/27 09:29:13;;;;;;;21.70;10.85;;;4.30;99.90;;;;;;5051897;28;20395;-63
2023/01/27 09:31:38;;;;;;;19.52;11.68;;;4.40;99.90;;;;;;5053895;28;20033;-63
2023/01/27 09:34:04;;;;;;;18.38;11.18;;;4.40;99.90;;;;;;5053690;28;20075;-63
2023/01/27 09:36:32;;;;;;;23.27;12.27;;;4.40;99.90;;;;;;5057049;28;20103;-65
2023/01/27 09:39:03;;;;;;;20.70;11.75;;;4.40;99.90;;;;;;5071811;28;20455;-65
2023/01/27 09:44:37;;;;;;;21.10;12.73;;;4.40;99.90;;;;;;5069318;28;20738;-63
2023/01/27 09:47:22;;;;;;;19.95;12.43;;;4.40;99.90;;;;;;5050315;28;20035;-63
2023/01/27 09:50:25;;;;;;;19.73;11.00;;;4.40;99.90;;;;;;5050011;28;20039;-63
2023/01/27 09:55:56;;;;;;;17.98;10.63;;;4.40;99.90;;;;;;5067895;28;20750;-64
2023/01/27 09:58:51;;;;;;;20.02;10.82;;;4.40;99.90;;;;;;5051048;28;20494;-62
2023/01/27 10:01:45;;;;;;;20.52;9.82;;;4.40;99.90;;;;;;5048258;28;20083;-65
2023/01/27 10:04:37;;;;;;;18.95;10.80;;;4.40;99.90;;;;;;5050045;28;20068;-65
2023/01/27 10:07:43;;;;;;;21.57;11.50;;;4.40;99.90;;;;;;5049968;28;20048;-62
2023/01/27 10:10:39;;;;;;;17.75;10.20;;;4.40;99.90;;;;;;5048437;28;20342;-65
2023/01/27 10:13:44;;;;;;;16.40;10.27;;;4.40;99.90;;;;;;5050984;28;20110;-64
2023/01/27 10:16:44;;;;;;;17.80;10.27;;;4.50;99.90;;;;;;5041863;28;20039;-62
2023/01/27 10:19:40;;;;;;;19.70;11.27;;;4.40;99.90;;;;;;5049273;28;20446;-63
2023/01/27 10:22:17;;;;;;;18.30;10.10;;;4.40;99.90;;;;;;5049888;28;20052;-63
2023/01/27 10:25:22;;;;;;;20.45;10.38;;;4.50;99.90;;;;;;5050017;28;20021;-62
2023/01/27 10:27:56;;;;;;;18.15;11.27;;;4.40;99.90;;;;;;5048939;28;20021;-62
2023/01/27 10:30:32;;;;;;;15.93;10.15;;;4.40;99.90;;;;;;5048506;28;20047;-63
2023/01/27 10:33:17;;;;;;;16.92;10.25;;;4.50;99.90;;;;;;5051411;28;20359;-63
2023/01/27 10:35:57;;;;;;;15.98;10.77;;;4.50;99.90;;;;;;5028963;28;20025;-66
2023/01/27 10:38:54;;;;;;;16.20;10.32;;;4.60;99.90;;;;;;5057609;28;20101;-63
2023/01/27 10:41:49;;;;;;;18.80;10.35;;;4.60;99.90;;;;;;5047819;28;20399;-64
2023/01/27 10:44:55;;;;;;;17.58;9.82;;;4.60;99.90;;;;;;5047549;28;20498;-63
2023/01/27 10:48:00;;;;;;;14.30;9.32;;;4.60;99.90;;;;;;5047817;28;20075;-63
2023/01/27 10:50:32;;;;;;;13.48;8.15;;;4.60;99.90;;;;;;5047986;28;20451;-63
2023/01/27 10:53:22;;;;;;;13.53;9.37;;;4.60;99.90;;;;;;5047540;28;20059;-63
2023/01/27 10:56:13;;;;;;;15.52;8.07;;;4.60;99.90;;;;;;5049176;28;20068;-63
2023/01/27 10:58:47;;;;;;;12.68;7.70;;;4.60;99.90;;;;;;5048660;28;20084;-63
2023/01/27 11:01:18;;;;;;;10.32;7.22;;;4.70;99.90;;;;;;5040333;28;20055;-62
2023/01/27 11:03:52;;;;;;;9.07;6.53;;;4.60;99.90;;;;;;5046616;28;20041;-64
2023/01/27 11:06:23;;;;;;;9.15;6.47;;;4.60;99.90;;;;;;5038673;28;20033;-63
2023/01/27 11:09:07;;;;;;;9.77;6.85;;;4.70;99.90;;;;;;5038687;28;20105;-65
2023/01/27 11:11:49;;;;;;;8.80;5.53;;;4.80;99.90;;;;;;5034609;28;20038;-63
2023/01/27 11:14:18;;;;;;;8.13;5.90;;;4.90;99.90;;;;;;5035854;28;20029;-64
2023/01/27 11:16:51;;;;;;;7.20;5.60;;;4.90;99.90;;;;;;5018694;28;20033;-64
2023/01/27 11:19:29;;;;;;;9.13;5.93;;;5.00;99.90;;;;;;5015898;28;20053;-64
2023/01/27 11:21:56;;;;;;;8.95;6.40;;;5.10;99.90;;;;;;5024465;28;20068;-63
2023/01/27 11:24:31;;;;;;;7.25;5.43;;;5.20;99.90;;;;;;5035143;28;20033;-63
2023/01/27 11:27:06;;;;;;;6.88;5.25;;;5.20;99.90;;;;;;5034759;28;20033;-64
2023/01/27 11:29:38;;;;;;;6.57;5.50;;;5.20;99.90;;;;;;5025944;28;20041;-63
2023/01/27 11:32:30;;;;;;;7.88;6.05;;;5.30;99.90;;;;;;5029737;28;20534;-63
2023/01/27 11:35:08;;;;;;;5.65;5.05;;;5.30;99.90;;;;;;5034731;28;20108;-66
2023/01/27 11:37:38;;;;;;;5.25;4.75;;;5.20;99.90;;;;;;5038397;28;20457;-63
2023/01/27 11:40:15;;;;;;;6.68;5.10;;;5.20;99.90;;;;;;5033914;28;20033;-64
2023/01/27 11:42:41;;;;;;;6.85;5.65;;;5.00;99.90;;;;;;5044236;28;20467;-63
2023/01/27 11:45:14;;;;;;;7.03;5.30;;;5.00;99.90;;;;;;5042376;28;20109;-64
2023/01/27 11:47:41;;;;;;;6.07;5.45;;;5.10;99.90;;;;;;5015238;28;20539;-64
2023/01/27 11:50:12;;;;;;;5.18;4.68;;;5.10;99.90;;;;;;5046108;28;20036;-63
2023/01/27 11:52:37;;;;;;;6.00;5.03;;;4.90;99.90;;;;;;5046675;28;20506;-63
2023/01/27 11:57:52;;;;;;;4.20;3.80;;;4.80;99.90;;;;;;5090478;27;20768;-63
2023/01/27 12:00:30;;;;;;;4.93;4.10;;;4.80;99.90;;;;;;5090653;28;20024;-63
2023/01/27 12:03:06;;;;;;;7.65;5.25;;;4.80;99.90;;;;;;5088846;28;20020;-64
2023/01/27 12:05:34;;;;;;;4.07;3.50;;;4.80;99.90;;;;;;5089659;28;20073;-63
2023/01/27 12:08:02;;;;;;;3.47;3.17;;;4.80;99.90;;;;;;5072463;28;20099;-63
2023/01/27 12:10:40;;;;;;;3.53;2.80;;;4.90;99.90;;;;;;5090373;28;20185;-63
2023/01/27 12:13:13;;;;;;;2.58;2.38;;;4.90;99.90;;;;;;5093699;28;20027;-63
2023/01/27 12:15:49;;;;;;;4.07;2.50;;;4.90;99.90;;;;;;5094420;28;20109;-63
2023/01/27 12:18:15;;;;;;;4.82;2.25;;;5.00;99.90;;;;;;5089842;28;20031;-65
2023/01/27 12:20:45;;;;;;;2.58;2.15;;;5.00;99.90;;;;;;5088455;28;20051;-66
2023/01/27 12:23:23;;;;;;;3.63;2.75;;;5.10;99.90;;;;;;5092199;28;20062;-63
2023/01/27 12:25:54;;;;;;;3.05;2.75;;;5.10;99.90;;;;;;5089842;28;20024;-63
2023/01/27 12:28:27;;;;;;;3.38;2.88;;;5.10;99.90;;;;;;5089675;28;20044;-63
2023/01/27 12:30:56;;;;;;;3.65;3.22;;;5.00;99.90;;;;;;5093147;28;20028;-63
2023/01/27 12:33:29;;;;;;;8.18;5.88;;;5.00;99.90;;;;;;5093087;28;20115;-63
2023/01/27 12:35:59;;;;;;;6.80;6.07;;;4.90;99.90;;;;;;5089341;28;20073;-63
2023/01/27 12:38:32;;;;;;;6.72;5.60;;;4.80;99.90;;;;;;5089633;28;20040;-63
2023/01/27 12:41:01;;;;;;;8.57;6.72;;;4.80;99.90;;;;;;5089832;28;20025;-63
2023/01/27 12:43:27;;;;;;;8.13;6.65;;;4.70;99.90;;;;;;5089743;28;20028;-63
2023/01/27 12:46:22;;;;;;;10.50;7.15;;;4.70;99.90;;;;;;5088280;28;20028;-63
2023/01/27 12:48:50;;;;;;;11.25;7.63;;;4.60;99.90;;;;;;5089596;28;20029;-63
2023/01/27 12:51:22;;;;;;;11.63;7.30;;;4.60;99.90;;;;;;5089139;28;20025;-63
2023/01/27 12:53:49;;;;;;;9.63;7.28;;;4.60;99.90;;;;;;5089567;28;20016;-63
2023/01/27 12:56:19;;;;;;;10.25;6.82;;;4.60;99.90;;;;;;5090763;28;20046;-63
2023/01/27 13:01:36;;;;;;;8.02;6.60;;;4.60;99.90;;;;;;5109576;27;20420;-62
2023/01/27 13:04:21;;;;;;;7.22;5.78;;;4.50;99.90;;;;;;5097576;28;20024;-62
2023/01/27 13:07:01;;;;;;;6.78;5.50;;;4.50;99.90;;;;;;5087391;28;20032;-65
2023/01/27 13:09:33;;;;;;;8.35;6.05;;;4.50;99.90;;;;;;5077868;28;20414;-62
2023/01/27 13:12:09;;;;;;;7.07;5.55;;;4.50;99.90;;;;;;5089420;28;20470;-64
2023/01/27 13:14:39;;;;;;;6.07;4.60;;;4.50;99.90;;;;;;5073855;28;20056;-63
2023/01/27 13:17:27;;;;;;;5.55;4.65;;;4.50;99.90;;;;;;5085183;28;20434;-63
2023/01/27 13:19:57;;;;;;;4.93;3.70;;;4.60;99.90;;;;;;5081787;28;20032;-63
2023/01/27 13:22:25;;;;;;;3.80;3.40;;;4.60;99.90;;;;;;5089308;28;20032;-63
2023/01/27 13:24:56;;;;;;;4.20;3.10;;;4.70;99.90;;;;;;5089828;28;20032;-63
2023/01/27 13:27:24;;;;;;;3.35;3.00;;;4.70;99.90;;;;;;5072737;28;20039;-62
2023/01/27 13:30:19;;;;;;;3.30;2.90;;;4.70;99.90;;;;;;5081654;28;20077;-63
2023/01/27 13:32:48;;;;;;;4.03;2.70;;;4.80;99.90;;;;;;5083745;28;20387;-63
2023/01/27 13:35:36;;;;;;;6.43;3.20;;;4.80;99.90;;;;;;5076377;28;20028;-62